This is the latest recevied weather packets stored in our database for station/object EA4BCR. If no packets are shown the sender has not sent any weather packets the latest 10 day(s).
| Time | Temp. | Humidity | Pressure | Rain* | Wind** | Luminosity | Snow |
|---|---|---|---|---|---|---|---|
| 1787890215 | 15° C | 69% | 1019.8 hPa | - | - | - | - |
| 1787889615 | 15° C | 73% | 1019.5 hPa | - | - | - | - |
| 1787889015 | 15.56° C | 67% | 1019.4 hPa | - | - | - | - |
| 1787888415 | 15.56° C | 71% | 1019.5 hPa | - | - | - | - |
| 1787887815 | 15° C | 68% | 1019.5 hPa | - | - | - | - |
| 1787887216 | 16.11° C | 67% | 1019.3 hPa | - | - | - | - |
| 1787886615 | 16.67° C | 65% | 1019.2 hPa | - | - | - | - |
| 1787886015 | 16.11° C | 68% | 1019.2 hPa | - | - | - | - |
| 1787885415 | 16.11° C | 67% | 1019.4 hPa | - | - | - | - |
| 1787884815 | 16.67° C | 65% | 1019.2 hPa | - | - | - | - |
| 1787884215 | 16.67° C | 65% | 1019 hPa | - | - | - | - |
| 1787883615 | 16.67° C | 64% | 1019 hPa | - | - | - | - |
| 1787883015 | 16.67° C | 62% | 1018.8 hPa | - | - | - | - |
| 1787882415 | 17.22° C | 62% | 1018.7 hPa | - | - | - | - |
| 1787881815 | 17.22° C | 61% | 1018.5 hPa | - | - | - | - |
| 1787881215 | 17.22° C | 61% | 1018.5 hPa | - | - | - | - |
| 1787880616 | 17.22° C | 62% | 1018.5 hPa | - | - | - | - |
| 1787880015 | 17.22° C | 60% | 1018.4 hPa | - | - | - | - |
| 1787879415 | 18.33° C | 59% | 1017.9 hPa | - | - | - | - |
| 1787878816 | 17.78° C | 60% | 1018.1 hPa | - | - | - | - |
| 1787878215 | 18.33° C | 58% | 1017.7 hPa | - | - | - | - |
| 1787877615 | 18.89° C | 57% | 1017.6 hPa | - | - | - | - |
| 1787877015 | 18.89° C | 56% | 1017.8 hPa | - | - | - | - |
| 1787876415 | 18.89° C | 56% | 1017.9 hPa | - | - | - | - |
| 1787875815 | 19.44° C | 54% | 1017.8 hPa | - | - | - | - |
* Rain since midnight (hover to see other rain measurements)
** Current wind speed in m/s (hover to see current wind gust speed)